createdAt,value
2023-04-11T00:01:32.390Z,3.72
2023-04-11T00:03:38.054Z,3.58
2023-04-11T00:05:39.688Z,2.17
2023-04-11T00:07:44.025Z,2.88
2023-04-11T00:09:45.590Z,2.80
2023-04-11T00:11:48.008Z,2.15
2023-04-11T00:13:53.365Z,2.47
2023-04-11T00:15:55.791Z,2.10
2023-04-11T00:17:59.548Z,1.75
2023-04-11T00:20:13.059Z,2.63
2023-04-11T00:22:29.926Z,2.13
2023-04-11T00:24:38.396Z,1.98
2023-04-11T00:26:52.329Z,2.20
2023-04-11T00:29:16.604Z,3.42
2023-04-11T00:31:27.412Z,2.10
2023-04-11T00:33:39.859Z,1.70
2023-04-11T00:35:52.819Z,1.92
2023-04-11T00:38:07.841Z,2.00
2023-04-11T00:40:19.669Z,1.97
2023-04-11T00:42:28.109Z,1.65
2023-04-11T00:44:44.693Z,1.58
2023-04-11T00:46:54.713Z,1.98
2023-04-11T00:49:11.227Z,2.10
2023-04-11T00:51:25.381Z,1.67
2023-04-11T00:53:32.897Z,2.17
2023-04-11T00:55:34.380Z,1.90
2023-04-11T00:57:38.711Z,1.77
2023-04-11T00:59:40.649Z,1.85
2023-04-11T01:01:43.392Z,1.55
2023-04-11T01:04:03.886Z,2.25
2023-04-11T01:06:13.071Z,2.33
2023-04-11T01:08:17.543Z,1.88
2023-04-11T01:10:22.516Z,2.88
2023-04-11T01:12:42.968Z,2.35
2023-04-11T01:14:47.854Z,1.95
2023-04-11T01:16:52.479Z,3.08
2023-04-11T01:18:56.989Z,1.88
2023-04-11T01:21:01.683Z,2.10
2023-04-11T01:23:23.125Z,1.73
2023-04-11T01:25:27.797Z,2.40
2023-04-11T01:27:34.160Z,2.30
2023-04-11T01:29:38.448Z,2.80
2023-04-11T01:31:42.587Z,3.33
2023-04-11T01:35:48.005Z,4.97
2023-04-11T01:37:52.470Z,2.38
2023-04-11T01:39:56.999Z,3.08
2023-04-11T01:42:02.764Z,2.22
2023-04-11T01:44:04.674Z,3.53
2023-04-11T01:46:07.641Z,2.08
2023-04-11T01:48:09.194Z,1.75
2023-04-11T01:50:12.148Z,2.15
2023-04-11T01:52:32.044Z,2.95
2023-04-11T01:54:36.225Z,2.10
2023-04-11T01:58:42.179Z,1.80
2023-04-11T02:00:46.732Z,1.60
2023-04-11T02:04:55.341Z,2.00
2023-04-11T02:06:56.865Z,1.88
2023-04-11T02:08:58.498Z,2.30
2023-04-11T02:11:02.742Z,1.20
2023-04-11T02:15:11.218Z,3.30
2023-04-11T02:17:12.945Z,1.63
2023-04-11T02:19:14.413Z,1.70
2023-04-11T02:21:15.900Z,1.75
2023-04-11T02:23:17.302Z,1.20
2023-04-11T02:27:25.896Z,1.30
2023-04-11T02:29:28.166Z,1.80
2023-04-11T02:31:29.742Z,1.80
2023-04-11T02:33:31.317Z,1.30
2023-04-11T02:35:52.137Z,1.13
2023-04-11T02:37:56.479Z,1.27
2023-04-11T02:40:01.641Z,2.53
2023-04-11T02:42:03.213Z,1.40
2023-04-11T02:44:04.949Z,2.25
2023-04-11T02:46:12.786Z,1.30
2023-04-11T02:48:14.653Z,2.92
2023-04-11T02:50:16.245Z,1.25
2023-04-11T02:52:20.617Z,2.17
2023-04-11T02:54:25.219Z,1.73
2023-04-11T02:56:30.791Z,1.40
2023-04-11T02:58:32.973Z,1.48
2023-04-11T03:00:34.420Z,1.65
2023-04-11T03:02:38.766Z,1.70
2023-04-11T03:04:43.079Z,1.40
2023-04-11T03:06:47.609Z,2.83
2023-04-11T03:08:53.020Z,1.20
2023-04-11T03:10:54.525Z,1.55
2023-04-11T03:12:55.964Z,2.35
2023-04-11T03:14:57.524Z,1.63
2023-04-11T03:17:02.054Z,1.80
2023-04-11T03:19:06.797Z,1.52
2023-04-11T03:21:10.530Z,1.75
2023-04-11T03:23:12.048Z,1.40
2023-04-11T03:25:23.495Z,1.60
2023-04-11T03:27:40.901Z,1.77
2023-04-11T03:29:53.707Z,1.77
2023-04-11T03:32:12.343Z,2.10
2023-04-11T03:34:26.511Z,2.67
2023-04-11T03:36:40.008Z,2.92
2023-04-11T03:38:53.956Z,1.17
2023-04-11T03:41:08.299Z,2.65
2023-04-11T03:43:22.140Z,1.55
2023-04-11T03:45:38.821Z,1.73
2023-04-11T03:47:53.596Z,1.55
2023-04-11T03:50:13.118Z,2.03
2023-04-11T03:52:25.622Z,1.85
2023-04-11T03:54:38.332Z,1.40
2023-04-11T03:56:53.512Z,1.05
2023-04-11T03:59:05.325Z,1.45
2023-04-11T04:01:09.543Z,1.60
2023-04-11T04:03:11.273Z,0.70
2023-04-11T04:05:15.927Z,1.50
2023-04-11T04:07:23.973Z,2.17
2023-04-11T04:09:44.110Z,1.30
2023-04-11T04:11:45.680Z,1.20
2023-04-11T04:15:54.345Z,2.75
2023-04-11T04:17:56.328Z,3.03
2023-04-11T04:20:00.776Z,1.30
2023-04-11T04:22:05.961Z,1.55
2023-04-11T04:24:07.466Z,2.38
2023-04-11T04:26:13.198Z,1.60
2023-04-11T04:28:20.494Z,3.00
2023-04-11T04:30:28.535Z,1.75
2023-04-11T04:32:33.050Z,1.80
2023-04-11T04:34:56.282Z,1.50
2023-04-11T04:37:02.049Z,2.00
2023-04-11T04:39:06.032Z,1.25
2023-04-11T04:41:26.259Z,1.75
2023-04-11T04:43:32.207Z,1.50
2023-04-11T04:45:36.925Z,0.90
2023-04-11T04:47:41.499Z,1.20
2023-04-11T04:49:46.489Z,2.45
2023-04-11T04:51:47.947Z,1.92
2023-04-11T04:53:49.577Z,2.25
2023-04-11T04:55:51.066Z,1.05
2023-04-11T04:57:52.604Z,1.20
2023-04-11T04:59:57.679Z,1.67
2023-04-11T05:02:01.880Z,1.77
2023-04-11T05:04:03.731Z,2.55
2023-04-11T05:06:06.464Z,1.45
2023-04-11T05:08:10.976Z,1.52
2023-04-11T05:10:12.579Z,1.33
2023-04-11T05:12:17.074Z,2.55
2023-04-11T05:16:22.480Z,2.15
2023-04-11T05:18:24.155Z,2.22
2023-04-11T05:20:26.984Z,1.45
2023-04-11T05:22:49.317Z,1.23
2023-04-11T05:24:53.760Z,2.17
2023-04-11T05:29:00.942Z,4.65
2023-04-11T05:31:02.575Z,1.58
2023-04-11T05:33:06.998Z,1.42
2023-04-11T05:35:09.133Z,1.83
2023-04-11T05:37:13.635Z,2.20
2023-04-11T05:39:15.821Z,4.20
2023-04-11T05:41:17.572Z,1.15
2023-04-11T05:43:19.209Z,1.80
2023-04-11T05:45:23.715Z,1.88
2023-04-11T05:49:29.327Z,2.53
2023-04-11T05:53:34.839Z,2.22
2023-04-11T05:55:36.812Z,2.30
2023-04-11T05:57:41.168Z,3.87
2023-04-11T06:01:51.733Z,1.47
2023-04-11T06:04:12.409Z,2.53
2023-04-11T06:06:16.994Z,3.15
2023-04-11T06:10:25.867Z,3.13
2023-04-11T06:12:27.983Z,3.05
2023-04-11T06:14:32.342Z,2.55
2023-04-11T06:16:36.655Z,3.13
2023-04-11T06:18:38.661Z,2.35
2023-04-11T06:20:40.170Z,2.20
2023-04-11T06:22:41.819Z,2.22
2023-04-11T06:24:45.156Z,2.75
2023-04-11T06:26:49.134Z,2.45
2023-04-11T06:29:11.602Z,2.42
2023-04-11T06:31:18.756Z,2.45
2023-04-11T06:33:30.194Z,2.03
2023-04-11T06:35:43.356Z,1.60
2023-04-11T06:37:54.537Z,3.55
2023-04-11T06:40:12.438Z,3.22
2023-04-11T06:42:26.102Z,3.08
2023-04-11T06:44:36.079Z,2.85
2023-04-11T06:46:48.939Z,2.03
2023-04-11T06:49:05.429Z,1.70
2023-04-11T06:51:17.594Z,2.08
2023-04-11T06:53:31.465Z,2.30
2023-04-11T06:55:45.868Z,3.05
2023-04-11T06:57:58.814Z,1.48
2023-04-11T07:00:10.104Z,1.92
2023-04-11T07:02:23.284Z,1.73
2023-04-11T07:04:33.816Z,1.55
2023-04-11T07:06:37.023Z,1.98
2023-04-11T07:08:42.119Z,2.40
2023-04-11T07:10:43.565Z,2.05
2023-04-11T07:12:45.252Z,3.28
2023-04-11T07:14:49.847Z,2.85
2023-04-11T07:16:53.921Z,3.20
2023-04-11T07:18:59.885Z,2.53
2023-04-11T07:21:01.418Z,2.70
2023-04-11T07:23:06.012Z,3.03
2023-04-11T07:25:27.153Z,2.30
2023-04-11T07:27:49.202Z,1.95
2023-04-11T07:30:09.854Z,2.55
2023-04-11T07:32:11.353Z,1.77
2023-04-11T07:34:12.844Z,3.03
2023-04-11T07:36:32.832Z,2.47
2023-04-11T07:38:37.740Z,3.80
2023-04-11T07:40:41.971Z,2.30
2023-04-11T07:42:43.493Z,2.13
2023-04-11T07:44:47.656Z,1.92
2023-04-11T07:46:52.005Z,1.95
2023-04-11T07:48:53.426Z,1.90
2023-04-11T07:50:55.491Z,2.67
2023-04-11T07:52:57.570Z,2.40
2023-04-11T07:55:17.716Z,2.65
2023-04-11T07:57:19.227Z,2.15
2023-04-11T07:59:40.196Z,2.10
2023-04-11T08:01:41.698Z,2.58
2023-04-11T08:04:01.951Z,2.08
2023-04-11T08:06:07.397Z,2.53
2023-04-11T08:08:11.921Z,2.53
2023-04-11T08:10:32.190Z,2.65
2023-04-11T08:12:33.831Z,3.13
2023-04-11T08:14:35.871Z,2.45
2023-04-11T08:16:40.056Z,2.55
2023-04-11T08:18:42.645Z,2.22
2023-04-11T08:20:49.946Z,2.80
2023-04-11T08:22:51.552Z,3.50
2023-04-11T08:24:56.401Z,2.17
2023-04-11T08:26:57.805Z,1.65
2023-04-11T08:29:03.485Z,2.10
2023-04-11T08:31:10.289Z,2.75
2023-04-11T08:33:15.717Z,2.20
2023-04-11T08:35:19.984Z,2.70
2023-04-11T08:37:24.272Z,2.67
2023-04-11T08:39:44.420Z,2.38
2023-04-11T08:42:04.579Z,2.83
2023-04-11T08:44:09.761Z,2.30
2023-04-11T08:46:13.976Z,1.90
2023-04-11T08:48:21.840Z,4.20
2023-04-11T08:50:23.360Z,2.15
2023-04-11T08:52:45.195Z,2.13
2023-04-11T08:54:47.313Z,1.98
2023-04-11T08:56:49.011Z,2.42
2023-04-11T08:58:53.168Z,2.70
2023-04-11T09:00:57.594Z,1.83
2023-04-11T09:03:02.688Z,2.38
2023-04-11T09:05:04.432Z,3.05
2023-04-11T09:07:05.966Z,2.45
2023-04-11T09:09:27.712Z,2.45
2023-04-11T09:11:50.669Z,2.03
2023-04-11T09:14:07.646Z,2.33
2023-04-11T09:16:13.253Z,2.58
2023-04-11T09:18:33.572Z,1.85
2023-04-11T09:20:37.669Z,3.22
2023-04-11T09:22:40.049Z,2.10
2023-04-11T09:25:01.257Z,2.17
2023-04-11T09:27:19.711Z,2.88
2023-04-11T09:29:38.027Z,3.22
2023-04-11T09:31:58.100Z,1.92
2023-04-11T09:33:59.739Z,2.20
2023-04-11T09:36:18.177Z,1.88
2023-04-11T09:38:30.909Z,2.30
2023-04-11T09:40:42.083Z,2.33
2023-04-11T09:42:44.322Z,2.85
2023-04-11T09:44:48.678Z,2.30
2023-04-11T09:47:09.771Z,3.15
2023-04-11T09:49:12.098Z,1.92
2023-04-11T09:51:18.099Z,1.90
2023-04-11T09:53:34.493Z,2.05
2023-04-11T09:55:39.825Z,2.25
2023-04-11T09:57:48.493Z,1.67
2023-04-11T09:59:52.134Z,1.80
2023-04-11T10:01:57.059Z,2.75
2023-04-11T10:04:01.570Z,2.50
2023-04-11T10:06:04.861Z,2.08
2023-04-11T10:08:12.367Z,2.10
2023-04-11T10:10:21.212Z,2.55
2023-04-11T10:12:33.060Z,2.92
2023-04-11T10:14:37.515Z,2.15
2023-04-11T10:17:02.106Z,2.25
2023-04-11T10:19:04.504Z,1.95
2023-04-11T10:21:28.934Z,1.60
2023-04-11T10:23:53.162Z,2.10
2023-04-11T10:26:00.664Z,2.55
2023-04-11T10:28:05.112Z,1.95
2023-04-11T10:30:07.909Z,2.33
2023-04-11T10:32:13.392Z,1.85
2023-04-11T10:34:17.383Z,1.60
2023-04-11T10:36:20.707Z,2.10
2023-04-11T10:38:50.647Z,2.15
2023-04-11T10:41:11.709Z,2.55
2023-04-11T10:43:19.702Z,1.95
2023-04-11T10:45:40.387Z,2.15
2023-04-11T10:48:00.395Z,3.30
2023-04-11T10:50:24.561Z,2.85
2023-04-11T10:52:27.312Z,1.98
2023-04-11T10:54:28.894Z,3.97
2023-04-11T10:56:51.442Z,2.15
2023-04-11T10:58:53.434Z,2.20
2023-04-11T11:01:00.367Z,3.92
2023-04-11T11:03:13.825Z,2.53
2023-04-11T11:05:16.685Z,3.25
2023-04-11T11:07:18.764Z,3.30
2023-04-11T11:09:21.940Z,2.97
2023-04-11T11:11:26.288Z,2.95
2023-04-11T11:13:45.095Z,3.15
2023-04-11T11:15:50.769Z,2.45
2023-04-11T11:17:55.615Z,2.95
2023-04-11T11:20:00.596Z,2.70
2023-04-11T11:22:07.464Z,3.88
2023-04-11T11:24:08.898Z,3.55
2023-04-11T11:26:10.348Z,2.45
2023-04-11T11:30:16.248Z,2.85
2023-04-11T11:32:29.422Z,2.72
2023-04-11T11:34:32.116Z,3.42
2023-04-11T11:36:39.240Z,3.47
2023-04-11T11:38:44.049Z,2.03
2023-04-11T11:41:04.488Z,3.22
2023-04-11T11:43:08.727Z,3.13
2023-04-11T11:45:28.659Z,4.93
2023-04-11T11:47:41.505Z,4.65
2023-04-11T11:49:46.715Z,4.97
2023-04-11T11:51:51.056Z,2.78
2023-04-11T11:56:15.616Z,3.10
2023-04-11T11:58:19.696Z,3.63
2023-04-11T12:00:25.020Z,4.45
2023-04-11T12:02:45.933Z,3.00
2023-04-11T12:04:51.081Z,3.80
2023-04-11T12:06:54.775Z,2.95
2023-04-11T12:09:03.411Z,3.55
2023-04-11T12:11:10.638Z,2.40
2023-04-11T12:13:22.641Z,3.30
2023-04-11T12:15:27.126Z,4.40
2023-04-11T12:17:32.200Z,4.15
2023-04-11T12:19:33.665Z,3.65
2023-04-11T12:21:35.262Z,3.90
2023-04-11T12:23:39.388Z,3.20
2023-04-11T12:25:41.499Z,4.95
2023-04-11T12:27:47.141Z,4.15
2023-04-11T12:29:51.609Z,3.45
2023-04-11T12:32:11.596Z,2.83
2023-04-11T12:34:16.084Z,3.25
2023-04-11T12:36:21.667Z,2.42
2023-04-11T12:38:25.846Z,2.15
2023-04-11T12:40:30.320Z,2.40
2023-04-11T12:42:36.854Z,3.60
2023-04-11T12:44:44.489Z,2.03
2023-04-11T12:46:46.040Z,3.22
2023-04-11T12:48:47.782Z,1.92
2023-04-11T12:50:49.276Z,1.30
2023-04-11T12:52:53.822Z,2.10
2023-04-11T12:55:14.674Z,1.70
2023-04-11T12:57:17.390Z,1.20
2023-04-11T12:59:19.324Z,1.63
2023-04-11T13:01:23.656Z,2.15
2023-04-11T13:03:29.403Z,1.27
2023-04-11T13:05:31.102Z,1.57
2023-04-11T13:07:35.288Z,1.15
2023-04-11T13:09:41.542Z,1.65
2023-04-11T13:11:47.411Z,1.33
2023-04-11T13:13:54.064Z,1.40
2023-04-11T13:18:01.183Z,1.77
2023-04-11T13:20:08.198Z,1.27
2023-04-11T13:22:10.250Z,2.15
2023-04-11T13:24:14.755Z,1.65
2023-04-11T13:26:19.408Z,1.88
2023-04-11T13:28:23.698Z,1.42
2023-04-11T13:30:27.781Z,1.80
2023-04-11T13:32:29.226Z,2.65
2023-04-11T13:34:30.674Z,1.55
2023-04-11T13:36:32.267Z,1.92
2023-04-11T13:38:37.711Z,1.17
2023-04-11T13:40:42.994Z,1.42
2023-04-11T13:42:45.707Z,1.77
2023-04-11T13:44:48.431Z,2.13
2023-04-11T13:46:53.176Z,1.80
2023-04-11T13:49:13.157Z,1.80
2023-04-11T13:51:14.627Z,1.88
2023-04-11T13:53:34.439Z,1.73
2023-04-11T13:55:36.124Z,1.90
2023-04-11T13:57:42.862Z,2.30
2023-04-11T13:59:47.133Z,1.77
2023-04-11T14:03:54.294Z,2.50
2023-04-11T14:05:55.980Z,2.15
2023-04-11T14:08:00.500Z,5.40
2023-04-11T14:10:02.045Z,2.35
2023-04-11T14:12:22.508Z,3.15
2023-04-11T14:16:28.062Z,2.60
2023-04-11T14:18:29.472Z,1.92
2023-04-11T14:20:31.003Z,2.38
2023-04-11T14:22:35.846Z,1.67
2023-04-11T14:24:40.659Z,3.03
2023-04-11T14:26:44.907Z,2.08
2023-04-11T14:28:46.868Z,2.08
2023-04-11T14:30:48.586Z,1.90
2023-04-11T14:32:53.241Z,3.10
2023-04-11T14:34:55.657Z,2.50
2023-04-11T14:37:16.486Z,3.22
2023-04-11T14:39:20.903Z,3.45
2023-04-11T14:41:25.584Z,1.75
2023-04-11T14:43:29.735Z,2.75
2023-04-11T14:45:31.319Z,2.05
2023-04-11T14:47:35.730Z,1.80
2023-04-11T14:51:44.229Z,1.45
2023-04-11T14:53:50.277Z,2.75
2023-04-11T14:55:54.709Z,1.50
2023-04-11T14:57:57.334Z,2.50
2023-04-11T14:59:59.617Z,2.10
2023-04-11T15:02:05.003Z,2.25
2023-04-11T15:04:09.639Z,1.80
2023-04-11T15:06:16.859Z,1.98
2023-04-11T15:08:18.329Z,1.80
2023-04-11T15:10:21.911Z,2.47
2023-04-11T15:12:26.192Z,2.35
2023-04-11T15:14:31.446Z,1.80
2023-04-11T15:16:35.466Z,1.70
2023-04-11T15:18:37.112Z,3.53
2023-04-11T15:20:38.520Z,2.80
2023-04-11T15:22:41.499Z,2.05
2023-04-11T15:24:46.006Z,3.05
2023-04-11T15:26:47.708Z,2.28
2023-04-11T15:28:49.101Z,2.25
2023-04-11T15:31:09.997Z,3.25
2023-04-11T15:33:12.744Z,3.00
2023-04-11T15:35:34.668Z,2.63
2023-04-11T15:37:38.894Z,2.90
2023-04-11T15:39:40.320Z,2.05
2023-04-11T15:41:44.786Z,2.65
2023-04-11T15:43:46.506Z,2.15
2023-04-11T15:45:52.282Z,3.13
2023-04-11T15:47:53.908Z,2.47
2023-04-11T15:50:01.846Z,2.20
2023-04-11T15:52:03.342Z,2.42
2023-04-11T15:54:13.658Z,1.75
2023-04-11T15:56:18.941Z,2.90
2023-04-11T15:58:48.723Z,3.88
2023-04-11T16:01:03.046Z,2.53
2023-04-11T16:03:18.212Z,2.28
2023-04-11T16:07:40.682Z,3.88
2023-04-11T16:09:53.468Z,1.52
2023-04-11T16:11:59.521Z,2.40
2023-04-11T16:14:10.843Z,2.42
2023-04-11T16:16:14.548Z,2.50
2023-04-11T16:18:22.683Z,2.50
2023-04-11T16:20:39.998Z,3.28
2023-04-11T16:22:54.256Z,4.30
2023-04-11T16:25:12.550Z,2.67
2023-04-11T16:27:19.723Z,3.08
2023-04-11T16:29:21.151Z,2.80
2023-04-11T16:31:25.058Z,3.42
2023-04-11T16:33:29.690Z,2.65
2023-04-11T16:35:35.820Z,3.00
2023-04-11T16:37:37.395Z,1.70
2023-04-11T16:39:57.929Z,3.08
2023-04-11T16:42:02.502Z,2.03
2023-04-11T16:44:24.837Z,1.90
2023-04-11T16:46:26.885Z,2.88
2023-04-11T16:48:31.579Z,2.00
2023-04-11T16:50:36.164Z,3.92
2023-04-11T16:52:43.369Z,2.92
2023-04-11T16:54:47.639Z,2.22
2023-04-11T16:59:12.362Z,2.03
2023-04-11T17:01:16.897Z,2.30
2023-04-11T17:03:36.997Z,1.95
2023-04-11T17:05:41.737Z,1.95
2023-04-11T17:07:43.718Z,2.80
2023-04-11T17:09:49.129Z,2.50
2023-04-11T17:12:09.568Z,2.28
2023-04-11T17:14:13.697Z,2.38
2023-04-11T17:16:18.548Z,2.85
2023-04-11T17:18:23.068Z,3.15
2023-04-11T17:20:24.520Z,3.28
2023-04-11T17:22:26.027Z,4.45
2023-04-11T17:24:46.282Z,3.45
2023-04-11T17:26:50.549Z,2.33
2023-04-11T17:28:52.096Z,2.97
2023-04-11T17:30:56.439Z,2.83
2023-04-11T17:33:00.872Z,2.70
2023-04-11T17:35:02.748Z,2.72
2023-04-11T17:37:07.021Z,3.80
2023-04-11T17:39:17.753Z,2.70
2023-04-11T17:41:19.393Z,3.50
2023-04-11T17:43:23.853Z,3.35
2023-04-11T17:45:28.269Z,3.33
2023-04-11T17:47:29.784Z,4.50
2023-04-11T17:49:31.284Z,2.92
2023-04-11T17:51:32.712Z,3.42
2023-04-11T17:53:34.408Z,4.57
2023-04-11T17:55:35.868Z,4.15
2023-04-11T17:59:41.308Z,3.33
2023-04-11T18:01:47.007Z,3.60
2023-04-11T18:03:51.952Z,3.28
2023-04-11T18:05:56.658Z,3.60
2023-04-11T18:08:02.615Z,4.25
2023-04-11T18:10:04.923Z,4.55
2023-04-11T18:12:06.442Z,4.55
2023-04-11T18:16:12.121Z,2.85
2023-04-11T18:18:13.557Z,5.18
2023-04-11T18:20:15.521Z,3.17
2023-04-11T18:22:17.041Z,4.22
2023-04-11T18:24:21.411Z,4.68
2023-04-11T18:26:25.918Z,6.32
2023-04-11T18:28:30.186Z,4.20
2023-04-11T18:30:31.757Z,4.65
2023-04-11T18:32:53.821Z,4.53
2023-04-11T18:34:55.524Z,3.95
2023-04-11T18:36:56.972Z,4.53
2023-04-11T18:39:01.196Z,3.72
2023-04-11T18:41:06.880Z,6.78
2023-04-11T18:43:09.054Z,4.47
2023-04-11T18:45:13.796Z,4.57
2023-04-11T18:47:17.511Z,4.28
2023-04-11T18:49:22.163Z,5.38
2023-04-11T18:51:23.631Z,3.95
2023-04-11T18:55:32.529Z,3.58
2023-04-11T18:57:52.759Z,5.45
2023-04-11T19:00:27.169Z,4.00
2023-04-11T19:02:56.347Z,5.65
2023-04-11T19:05:20.615Z,5.85
2023-04-11T19:07:43.714Z,5.50
2023-04-11T19:10:15.929Z,5.13
2023-04-11T19:12:37.108Z,4.18
2023-04-11T19:15:30.947Z,4.63
2023-04-11T19:18:06.892Z,4.57
2023-04-11T19:20:18.871Z,4.00
2023-04-11T19:22:22.661Z,5.63
2023-04-11T19:24:26.394Z,4.25
2023-04-11T19:26:33.871Z,5.70
2023-04-11T19:28:40.436Z,4.95
2023-04-11T19:30:46.580Z,5.75
2023-04-11T19:32:52.847Z,4.53
2023-04-11T19:34:57.370Z,4.82
2023-04-11T19:36:58.777Z,5.75
2023-04-11T19:39:03.034Z,4.07
2023-04-11T19:41:23.265Z,3.63
2023-04-11T19:45:32.498Z,4.10
2023-04-11T19:47:34.215Z,5.20
2023-04-11T19:49:54.238Z,7.95
2023-04-11T19:51:58.774Z,4.85
2023-04-11T19:54:00.207Z,4.15
2023-04-11T19:56:07.576Z,5.13
2023-04-11T19:58:11.752Z,4.40
2023-04-11T20:00:16.310Z,3.10
2023-04-11T20:02:17.893Z,3.63
2023-04-11T20:04:22.443Z,3.03
2023-04-11T20:06:24.014Z,3.67
2023-04-11T20:08:30.560Z,3.83
2023-04-11T20:10:36.400Z,4.55
2023-04-11T20:12:40.681Z,3.95
2023-04-11T20:14:44.731Z,3.47
2023-04-11T20:17:05.664Z,5.70
2023-04-11T20:19:10.237Z,4.70
2023-04-11T20:21:11.982Z,4.28
2023-04-11T20:23:21.540Z,5.20
2023-04-11T20:25:25.516Z,3.97
2023-04-11T20:27:29.834Z,3.42
2023-04-11T20:29:32.908Z,7.53
2023-04-11T20:31:34.476Z,3.53
2023-04-11T20:33:36.239Z,2.70
2023-04-11T20:35:37.759Z,2.60
2023-04-11T20:37:40.226Z,3.45
2023-04-11T20:39:44.476Z,3.03
2023-04-11T20:43:52.051Z,4.70
2023-04-11T20:45:57.572Z,4.95
2023-04-11T20:48:01.667Z,5.10
2023-04-11T20:50:07.277Z,4.47
2023-04-11T20:52:12.503Z,4.82
2023-04-11T20:54:16.966Z,4.63
2023-04-11T20:56:18.467Z,3.75
2023-04-11T21:00:25.079Z,3.67
2023-04-11T21:02:29.339Z,3.88
2023-04-11T21:04:31.237Z,4.57
2023-04-11T21:06:51.584Z,3.28
2023-04-11T21:08:56.038Z,4.65
2023-04-11T21:11:02.029Z,2.55
2023-04-11T21:13:03.720Z,3.47
2023-04-11T21:15:08.963Z,3.22
2023-04-11T21:17:10.861Z,4.03
2023-04-11T21:19:12.626Z,3.00
2023-04-11T21:21:16.931Z,3.55
2023-04-11T21:23:18.508Z,3.40
2023-04-11T21:25:23.460Z,2.90
2023-04-11T21:27:27.497Z,3.83
2023-04-11T21:29:31.761Z,4.88
2023-04-11T21:31:36.290Z,3.88
2023-04-11T21:33:40.426Z,3.85
2023-04-11T21:35:41.994Z,3.47
2023-04-11T21:37:43.469Z,4.32
2023-04-11T21:39:47.880Z,3.13
2023-04-11T21:41:49.281Z,3.55
2023-04-11T21:45:54.908Z,6.65
2023-04-11T21:47:59.222Z,2.80
2023-04-11T21:50:03.690Z,3.33
2023-04-11T21:52:23.980Z,4.40
2023-04-11T21:54:25.441Z,3.83
2023-04-11T21:56:26.896Z,6.13
2023-04-11T21:58:29.806Z,4.25
2023-04-11T22:00:36.299Z,4.07
2023-04-11T22:02:50.201Z,3.78
2023-04-11T22:05:06.996Z,5.10
2023-04-11T22:07:20.287Z,7.65
2023-04-11T22:09:34.481Z,3.80
2023-04-11T22:11:40.120Z,5.25
2023-04-11T22:13:49.235Z,6.50
2023-04-11T22:16:06.997Z,4.82
2023-04-11T22:18:16.247Z,4.93
2023-04-11T22:20:22.911Z,5.78
2023-04-11T22:22:36.729Z,5.68
2023-04-11T22:24:40.893Z,5.63
2023-04-11T22:26:51.999Z,6.25
2023-04-11T22:29:08.045Z,8.80
2023-04-11T22:31:19.152Z,6.65
2023-04-11T22:33:26.597Z,6.00
2023-04-11T22:35:36.393Z,5.57
2023-04-11T22:37:39.384Z,7.80
2023-04-11T22:39:59.623Z,7.25
2023-04-11T22:42:01.045Z,5.68
2023-04-11T22:44:02.673Z,6.43
2023-04-11T22:46:08.927Z,6.82
2023-04-11T22:48:13.968Z,5.18
2023-04-11T22:50:18.337Z,5.43
2023-04-11T22:52:26.030Z,6.85
2023-04-11T22:54:28.270Z,6.45
2023-04-11T22:56:29.866Z,6.18
2023-04-11T22:58:33.822Z,5.13
2023-04-11T23:02:40.137Z,7.25
2023-04-11T23:04:45.137Z,6.20
2023-04-11T23:07:05.400Z,4.82
2023-04-11T23:11:10.999Z,5.70
2023-04-11T23:13:12.643Z,5.10
2023-04-11T23:15:17.470Z,5.10
2023-04-11T23:17:21.998Z,5.75
2023-04-11T23:19:23.632Z,6.50
2023-04-11T23:21:25.317Z,6.75
2023-04-11T23:23:46.011Z,6.53
2023-04-11T23:25:53.289Z,5.47
2023-04-11T23:29:59.217Z,5.65
2023-04-11T23:32:03.809Z,4.82
2023-04-11T23:34:08.613Z,4.97
2023-04-11T23:36:13.694Z,6.13
2023-04-11T23:38:16.337Z,4.30
2023-04-11T23:40:21.397Z,4.47
2023-04-11T23:42:25.818Z,5.72
2023-04-11T23:44:30.250Z,6.30
2023-04-11T23:46:34.479Z,5.63
2023-04-11T23:48:36.103Z,5.65
2023-04-11T23:50:40.102Z,6.85
2023-04-11T23:52:41.715Z,4.25
2023-04-11T23:56:47.090Z,6.13
2023-04-11T23:58:48.686Z,4.00
